Kingfield, Maine
Current Conditions -  °F | °C
As of 6:15 PM on Wednesday 17 Dec 2014 (Local Time) from KWVL Reporting Station
Overcast Overcast  
Wind Chill: 28°   Ceiling: 500
Heat Index: 36°   Visibility: 4mi
Dew Point: 32°   Wind: 12mph
Humidity: 87%   Direction: 360°N
Pressure: 29.68"   Gusts: 16mph
Location:  44.96°N, 70.15°W
Report Text: KWVL 172315Z 36010G14KT 4SM OVC005 02/00 A2968 RMK AO1 P0001
Loading
Personal Weather Stations






























Interactive Weather Map New forecast layout! Learn more

10-Day Weather Forecast

Advertisements
Track Severe Weather on mobile